Time;durP1;ratioP1;P1;durP2;ratioP2;P2;SDS_P1;SDS_P2;PMS_P1;PMS_P2;Temp;Humidity;BMP_temperature;BMP_pressure;BME280_temperature;BME280_humidity;BME280_pressure;Samples;Min_cycle;Max_cycle;Signal;HPM_P1;HPM_P2
2022/05/24 00:00:27;;;;;;;11.50;7.47;;;;;;;;;;5053791;28;20104;-83
2022/05/24 00:02:54;;;;;;;9.20;7.35;;;;;;;;;;5053476;28;20040;-83
2022/05/24 00:05:20;;;;;;;15.38;7.43;;;;;;;;;;5053706;28;20028;-84
2022/05/24 00:07:46;;;;;;;12.82;7.28;;;;;;;;;;5051753;28;20021;-85
2022/05/24 00:10:17;;;;;;;9.15;7.57;;;;;;;;;;5053311;28;20398;-85
2022/05/24 00:12:43;;;;;;;10.50;6.88;;;;;;;;;;5054843;28;20021;-86
2022/05/24 00:15:19;;;;;;;11.18;7.18;;;;;;;;;;5041475;28;20388;-86
2022/05/24 00:17:47;;;;;;;12.00;6.95;;;;;;;;;;5033765;28;20467;-86
2022/05/24 00:20:13;;;;;;;11.55;6.63;;;;;;;;;;5032149;28;20021;-85
2022/05/24 00:22:39;;;;;;;10.52;7.38;;;;;;;;;;5035803;28;20020;-85
2022/05/24 00:25:08;;;;;;;12.57;7.43;;;;;;;;;;5053860;28;20393;-86
2022/05/24 00:27:34;;;;;;;10.27;6.40;;;;;;;;;;5054318;28;20017;-86
2022/05/24 00:30:00;;;;;;;10.63;7.05;;;;;;;;;;5052656;28;20020;-84
2022/05/24 00:32:26;;;;;;;12.82;7.50;;;;;;;;;;5051661;28;20029;-85
2022/05/24 00:34:52;;;;;;;9.57;6.90;;;;;;;;;;5032421;28;20061;-86
2022/05/24 00:37:20;;;;;;;7.57;6.68;;;;;;;;;;5032346;28;20022;-86
2022/05/24 00:39:47;;;;;;;9.13;6.75;;;;;;;;;;5033636;28;20025;-85
2022/05/24 00:42:16;;;;;;;11.82;7.65;;;;;;;;;;5033745;28;20113;-86
2022/05/24 00:45:11;;;;;;;8.52;6.43;;;;;;;;;;5033546;28;20029;-85
2022/05/24 00:47:40;;;;;;;11.98;6.78;;;;;;;;;;5011628;28;20029;-86
2022/05/24 00:50:18;;;;;;;10.43;7.05;;;;;;;;;;5031689;28;20033;-86
2022/05/24 00:53:00;;;;;;;13.25;7.80;;;;;;;;;;5031509;28;20055;-86
2022/05/24 00:55:27;;;;;;;9.95;6.82;;;;;;;;;;5031682;28;20017;-86
2022/05/24 00:57:53;;;;;;;9.57;7.35;;;;;;;;;;5031349;28;20026;-86
2022/05/24 01:00:21;;;;;;;10.57;7.13;;;;;;;;;;5032945;28;20029;-84
2022/05/24 01:02:48;;;;;;;11.88;7.78;;;;;;;;;;5044824;28;20427;-85
2022/05/24 01:05:16;;;;;;;11.32;7.65;;;;;;;;;;5053386;28;20045;-85
2022/05/24 01:07:42;;;;;;;12.95;7.50;;;;;;;;;;5051555;28;20017;-85
2022/05/24 01:10:09;;;;;;;9.38;6.93;;;;;;;;;;5052751;28;20070;-86
2022/05/24 01:12:39;;;;;;;9.82;6.82;;;;;;;;;;5053367;28;20021;-85
2022/05/24 01:15:06;;;;;;;7.75;6.57;;;;;;;;;;5041183;28;20029;-85
2022/05/24 01:17:32;;;;;;;10.13;7.47;;;;;;;;;;5031319;28;20060;-85
2022/05/24 01:20:01;;;;;;;10.43;6.85;;;;;;;;;;5030490;28;20030;-86
2022/05/24 01:22:45;;;;;;;11.43;5.90;;;;;;;;;;5035092;28;20032;-87
2022/05/24 01:25:29;;;;;;;8.07;6.13;;;;;;;;;;5052488;28;20063;-86
2022/05/24 01:27:58;;;;;;;6.95;5.60;;;;;;;;;;5051828;28;20059;-84
2022/05/24 01:30:25;;;;;;;10.35;5.45;;;;;;;;;;5051082;28;20024;-87
2022/05/24 01:38:21;;;;;;;5.47;4.82;;;;;;;;;;5034353;28;20089;-85
2022/05/24 01:40:49;;;;;;;7.20;4.57;;;;;;;;;;5042466;28;20421;-85
2022/05/24 01:43:17;;;;;;;7.05;4.75;;;;;;;;;;5052765;28;20032;-86
2022/05/24 01:45:51;;;;;;;6.90;3.97;;;;;;;;;;5052846;28;20559;-85
2022/05/24 01:48:21;;;;;;;5.80;3.70;;;;;;;;;;5051484;28;20461;-85
2022/05/24 01:50:50;;;;;;;5.05;3.88;;;;;;;;;;5051638;28;20033;-85
2022/05/24 01:53:17;;;;;;;7.85;4.15;;;;;;;;;;5050887;28;20048;-84
2022/05/24 01:56:10;;;;;;;4.03;3.70;;;;;;;;;;5034077;28;20048;-86
2022/05/24 01:58:36;;;;;;;4.10;3.50;;;;;;;;;;4952119;28;20400;-86
2022/05/24 02:01:21;;;;;;;3.92;3.63;;;;;;;;;;5031838;28;20041;-86
2022/05/24 02:03:47;;;;;;;3.00;2.78;;;;;;;;;;5032240;28;20460;-86
2022/05/24 02:06:21;;;;;;;6.38;3.03;;;;;;;;;;5030807;28;20425;-85
2022/05/24 02:08:47;;;;;;;3.22;2.92;;;;;;;;;;5032262;28;20519;-86
2022/05/24 02:11:15;;;;;;;5.28;3.70;;;;;;;;;;5031884;28;20065;-85
2022/05/24 02:13:43;;;;;;;10.10;3.40;;;;;;;;;;5030755;28;20022;-86
2022/05/24 02:16:11;;;;;;;3.10;2.78;;;;;;;;;;5032015;28;20018;-86
2022/05/24 02:18:41;;;;;;;11.50;3.20;;;;;;;;;;5030545;28;20475;-88
2022/05/24 02:21:07;;;;;;;5.53;2.90;;;;;;;;;;5030912;28;20446;-86
2022/05/24 02:23:40;;;;;;;4.13;2.63;;;;;;;;;;5030861;28;20597;-87
2022/05/24 02:26:07;;;;;;;4.80;3.05;;;;;;;;;;5031467;28;20034;-85
2022/05/24 02:28:34;;;;;;;3.08;2.70;;;;;;;;;;5032717;28;20475;-86
2022/05/24 02:31:01;;;;;;;3.55;2.80;;;;;;;;;;5032659;28;20026;-86
2022/05/24 02:33:27;;;;;;;6.78;3.50;;;;;;;;;;5036109;28;20025;-85
2022/05/24 02:35:53;;;;;;;4.05;3.10;;;;;;;;;;5036937;28;20113;-84
2022/05/24 02:38:20;;;;;;;5.05;3.05;;;;;;;;;;5035094;28;20075;-85
2022/05/24 02:43:31;;;;;;;3.78;3.25;;;;;;;;;;5035992;28;20036;-85
2022/05/24 02:45:57;;;;;;;4.30;2.85;;;;;;;;;;5034792;28;20025;-85
2022/05/24 02:48:23;;;;;;;3.17;2.75;;;;;;;;;;5036279;28;20109;-85
2022/05/24 02:50:49;;;;;;;2.63;2.42;;;;;;;;;;5034508;28;20033;-85
2022/05/24 02:53:15;;;;;;;3.30;2.88;;;;;;;;;;5034624;28;20026;-84
2022/05/24 02:55:41;;;;;;;4.45;2.42;;;;;;;;;;5054249;28;20155;-84
2022/05/24 02:58:07;;;;;;;3.33;2.65;;;;;;;;;;5042371;28;20075;-84
2022/05/24 03:00:33;;;;;;;4.55;2.60;;;;;;;;;;5035804;28;20037;-84
2022/05/24 03:02:59;;;;;;;4.38;2.45;;;;;;;;;;5034504;28;20030;-84
2022/05/24 03:05:26;;;;;;;2.95;2.63;;;;;;;;;;5035192;28;20029;-84
2022/05/24 03:10:42;;;;;;;3.92;2.42;;;;;;;;;;5016051;28;20092;-85
2022/05/24 03:15:55;;;;;;;3.58;2.50;;;;;;;;;;5040559;28;20405;-85
2022/05/24 03:18:22;;;;;;;3.58;2.22;;;;;;;;;;5051089;28;20120;-85
2022/05/24 03:20:48;;;;;;;4.10;2.10;;;;;;;;;;5035276;28;20075;-85
2022/05/24 03:23:15;;;;;;;5.25;1.95;;;;;;;;;;5033877;28;20029;-85
2022/05/24 03:25:43;;;;;;;2.13;1.90;;;;;;;;;;5035271;28;20545;-87
2022/05/24 03:28:10;;;;;;;5.90;2.60;;;;;;;;;;5035109;28;20037;-85
2022/05/24 03:30:43;;;;;;;4.95;1.92;;;;;;;;;;5035258;28;20022;-86
2022/05/24 03:33:10;;;;;;;3.00;1.60;;;;;;;;;;5033873;28;20021;-86
2022/05/24 03:35:36;;;;;;;4.95;1.85;;;;;;;;;;5033697;28;20110;-85
2022/05/24 03:38:02;;;;;;;1.50;1.40;;;;;;;;;;5046384;28;20036;-83
2022/05/24 03:40:33;;;;;;;1.52;1.42;;;;;;;;;;5052769;28;20045;-86
2022/05/24 03:42:59;;;;;;;1.80;1.60;;;;;;;;;;5052804;28;20498;-85
2022/05/24 03:45:26;;;;;;;4.78;1.42;;;;;;;;;;5054662;28;20029;-82
2022/05/24 03:47:52;;;;;;;1.70;1.40;;;;;;;;;;5053468;28;20469;-83
2022/05/24 03:50:19;;;;;;;2.30;1.75;;;;;;;;;;5050345;28;20033;-85
2022/05/24 03:52:45;;;;;;;2.88;1.70;;;;;;;;;;5035068;28;20041;-85
2022/05/24 03:55:12;;;;;;;2.97;1.60;;;;;;;;;;5034599;28;20025;-85
2022/05/24 04:00:23;;;;;;;3.13;1.73;;;;;;;;;;5036394;28;20052;-85
2022/05/24 04:02:49;;;;;;;5.32;1.60;;;;;;;;;;5037103;28;20030;-85
2022/05/24 04:05:16;;;;;;;3.95;1.60;;;;;;;;;;5033219;28;20021;-86
2022/05/24 04:07:42;;;;;;;2.35;1.50;;;;;;;;;;5036811;28;20087;-85
2022/05/24 04:10:09;;;;;;;2.42;1.38;;;;;;;;;;5053752;28;20024;-86
2022/05/24 04:12:35;;;;;;;1.52;1.27;;;;;;;;;;5052719;28;20033;-86
2022/05/24 04:15:01;;;;;;;2.10;1.33;;;;;;;;;;5053460;28;20056;-85
2022/05/24 04:17:27;;;;;;;1.60;1.50;;;;;;;;;;5052404;28;20021;-86
2022/05/24 04:19:53;;;;;;;2.80;1.48;;;;;;;;;;5037985;28;20112;-85
2022/05/24 04:22:19;;;;;;;2.28;2.03;;;;;;;;;;5032448;28;20443;-86
2022/05/24 04:24:46;;;;;;;3.95;1.77;;;;;;;;;;5032546;28;20557;-86
2022/05/24 04:27:12;;;;;;;11.18;1.90;;;;;;;;;;5034137;28;20454;-87
2022/05/24 04:29:42;;;;;;;2.20;2.00;;;;;;;;;;5037960;28;20131;-86
2022/05/24 04:32:14;;;;;;;4.00;1.88;;;;;;;;;;5053677;28;20052;-84
2022/05/24 04:34:40;;;;;;;1.60;1.50;;;;;;;;;;5054343;28;20097;-85
2022/05/24 04:37:07;;;;;;;2.20;1.58;;;;;;;;;;5052328;28;20070;-85
2022/05/24 04:39:33;;;;;;;2.00;1.05;;;;;;;;;;5052235;28;20056;-86
2022/05/24 04:44:44;;;;;;;0.77;0.77;;;;;;;;;;5050441;28;20036;-85
2022/05/24 04:47:13;;;;;;;3.17;1.15;;;;;;;;;;5052293;28;20051;-85
2022/05/24 04:49:44;;;;;;;2.15;0.80;;;;;;;;;;5052348;28;20075;-85
2022/05/24 04:52:11;;;;;;;1.85;0.95;;;;;;;;;;5045674;28;20037;-82
2022/05/24 04:54:43;;;;;;;1.58;0.80;;;;;;;;;;5033440;28;20037;-85
2022/05/24 04:57:09;;;;;;;1.08;0.85;;;;;;;;;;5032269;28;20030;-83
2022/05/24 04:59:38;;;;;;;0.70;0.70;;;;;;;;;;5033017;28;20191;-84
2022/05/24 05:02:15;;;;;;;1.80;0.80;;;;;;;;;;5032318;28;20538;-84
2022/05/24 05:04:44;;;;;;;0.70;0.70;;;;;;;;;;5032258;28;20026;-85
2022/05/24 05:07:10;;;;;;;1.23;0.80;;;;;;;;;;5032794;28;20075;-85
2022/05/24 05:09:39;;;;;;;0.73;0.70;;;;;;;;;;5050132;28;20029;-84
2022/05/24 05:12:06;;;;;;;3.28;0.98;;;;;;;;;;5032160;28;20040;-84
2022/05/24 05:14:35;;;;;;;3.72;1.00;;;;;;;;;;5034368;28;20037;-84
2022/05/24 05:17:02;;;;;;;1.98;0.90;;;;;;;;;;5032923;28;20037;-86
2022/05/24 05:19:28;;;;;;;1.80;1.17;;;;;;;;;;5032980;28;20087;-85
2022/05/24 05:21:54;;;;;;;1.50;1.17;;;;;;;;;;5038240;28;20350;-84
2022/05/24 05:24:20;;;;;;;1.60;1.05;;;;;;;;;;5052277;28;20032;-85
2022/05/24 05:26:46;;;;;;;0.95;0.95;;;;;;;;;;5051982;28;20021;-85
2022/05/24 05:29:12;;;;;;;2.13;1.08;;;;;;;;;;5035404;28;20051;-86
2022/05/24 05:31:39;;;;;;;2.00;1.10;;;;;;;;;;5033685;28;20091;-84
2022/05/24 05:34:05;;;;;;;2.17;1.20;;;;;;;;;;5031997;28;20024;-84
2022/05/24 05:36:32;;;;;;;2.92;1.10;;;;;;;;;;5032049;28;20021;-84
2022/05/24 05:39:00;;;;;;;3.00;1.55;;;;;;;;;;5032904;28;20116;-86
2022/05/24 05:41:30;;;;;;;1.65;1.48;;;;;;;;;;5031469;28;20026;-84
2022/05/24 05:43:57;;;;;;;2.85;1.42;;;;;;;;;;5032097;28;20032;-86
2022/05/24 05:46:23;;;;;;;3.58;1.30;;;;;;;;;;5032960;28;20455;-86
2022/05/24 05:48:49;;;;;;;2.05;1.33;;;;;;;;;;5032969;28;20107;-86
2022/05/24 05:51:16;;;;;;;5.38;1.70;;;;;;;;;;5033485;28;20079;-86
2022/05/24 05:53:42;;;;;;;1.75;1.15;;;;;;;;;;5035009;28;20471;-85
2022/05/24 05:56:13;;;;;;;3.22;1.27;;;;;;;;;;5033045;28;20025;-84
2022/05/24 05:58:39;;;;;;;;;;;;;;;;;;5033077;28;20036;-85
2022/05/24 06:01:05;;;;;;;3.38;1.60;;;;;;;;;;5034368;28;19905;-85
2022/05/24 06:03:31;;;;;;;5.88;1.95;;;;;;;;;;5033633;28;20033;-85
2022/05/24 06:06:00;;;;;;;2.85;1.67;;;;;;;;;;5037349;28;20028;-84
2022/05/24 06:08:26;;;;;;;3.63;1.30;;;;;;;;;;5038601;28;20467;-85
2022/05/24 06:10:53;;;;;;;1.40;1.23;;;;;;;;;;5038350;28;20098;-85
2022/05/24 06:13:20;;;;;;;3.17;1.30;;;;;;;;;;5037058;28;20096;-86
2022/05/24 06:15:51;;;;;;;2.83;1.30;;;;;;;;;;5029645;28;20026;-86
2022/05/24 06:18:17;;;;;;;4.47;1.45;;;;;;;;;;5021976;28;20041;-86
2022/05/24 06:20:43;;;;;;;2.35;1.33;;;;;;;;;;5034319;28;20029;-85
2022/05/24 06:23:09;;;;;;;5.03;1.55;;;;;;;;;;5035890;28;20057;-84
2022/05/24 06:25:36;;;;;;;4.50;1.38;;;;;;;;;;5035773;28;20029;-82
2022/05/24 06:28:02;;;;;;;1.50;1.20;;;;;;;;;;5036107;28;20021;-85
2022/05/24 06:30:28;;;;;;;3.28;1.63;;;;;;;;;;5034179;28;20072;-86
2022/05/24 06:32:54;;;;;;;1.73;1.40;;;;;;;;;;5034105;28;20033;-85
2022/05/24 06:35:21;;;;;;;1.67;1.33;;;;;;;;;;5036015;28;20450;-86
2022/05/24 06:37:48;;;;;;;2.83;1.60;;;;;;;;;;5034118;28;20029;-85
2022/05/24 06:40:16;;;;;;;3.58;1.73;;;;;;;;;;5033880;28;20033;-85
2022/05/24 06:42:42;;;;;;;4.90;1.65;;;;;;;;;;5024549;28;20092;-85
2022/05/24 06:45:20;;;;;;;1.40;1.30;;;;;;;;;;5026130;28;20112;-86
2022/05/24 06:48:07;;;;;;;1.52;1.42;;;;;;;;;;5033987;28;20053;-85
2022/05/24 06:50:33;;;;;;;2.63;1.55;;;;;;;;;;5034751;28;20056;-86
2022/05/24 06:52:59;;;;;;;6.43;1.50;;;;;;;;;;5034744;28;20029;-86
2022/05/24 06:55:31;;;;;;;2.55;1.67;;;;;;;;;;5033933;28;20044;-84
2022/05/24 06:58:00;;;;;;;1.95;1.45;;;;;;;;;;5035903;28;20144;-86
2022/05/24 07:03:21;;;;;;;4.80;1.25;;;;;;;;;;5035057;28;20083;-85
2022/05/24 07:05:47;;;;;;;2.05;1.27;;;;;;;;;;5033570;28;20033;-86
2022/05/24 07:08:16;;;;;;;2.90;1.00;;;;;;;;;;5034918;28;20036;-87
2022/05/24 07:10:45;;;;;;;3.40;1.00;;;;;;;;;;5033240;28;20467;-84
2022/05/24 07:13:12;;;;;;;4.07;1.17;;;;;;;;;;5035581;28;20053;-85
2022/05/24 07:15:47;;;;;;;3.30;1.25;;;;;;;;;;5035215;28;20037;-85
2022/05/24 07:18:26;;;;;;;5.00;1.00;;;;;;;;;;5037621;28;20025;-85
2022/05/24 07:21:00;;;;;;;1.60;1.05;;;;;;;;;;5066405;23;20052;-86
2022/05/24 07:23:27;;;;;;;0.80;0.80;;;;;;;;;;5055026;28;20041;-85
2022/05/24 07:25:54;;;;;;;1.00;0.90;;;;;;;;;;5055366;28;20025;-84
2022/05/24 07:28:24;;;;;;;2.67;1.00;;;;;;;;;;5055259;28;20043;-82
2022/05/24 07:30:53;;;;;;;9.88;1.58;;;;;;;;;;5055016;28;20024;-84
2022/05/24 07:33:19;;;;;;;0.90;0.68;;;;;;;;;;5056040;28;20079;-88
2022/05/24 07:35:54;;;;;;;1.30;1.10;;;;;;;;;;5059916;28;20025;-87
2022/05/24 07:38:23;;;;;;;5.80;1.13;;;;;;;;;;5053445;28;20017;-87
2022/05/24 07:46:20;;;;;;;2.83;1.10;;;;;;;;;;5035308;28;20497;-87
2022/05/24 07:48:46;;;;;;;1.20;1.10;;;;;;;;;;5033562;28;20029;-86
2022/05/24 07:51:12;;;;;;;1.60;0.90;;;;;;;;;;5034077;28;20029;-84
2022/05/24 07:53:38;;;;;;;5.10;1.58;;;;;;;;;;5041085;28;20033;-86
2022/05/24 07:56:05;;;;;;;1.85;1.00;;;;;;;;;;5032994;28;20036;-86
2022/05/24 07:58:31;;;;;;;1.15;1.05;;;;;;;;;;5041909;28;20029;-86
2022/05/24 08:01:00;;;;;;;1.42;1.30;;;;;;;;;;5053056;28;20131;-86
2022/05/24 08:03:29;;;;;;;2.03;1.50;;;;;;;;;;5052965;28;20110;-85
2022/05/24 08:05:56;;;;;;;3.45;1.10;;;;;;;;;;5053077;28;20068;-87
2022/05/24 08:08:22;;;;;;;2.03;1.20;;;;;;;;;;5044261;28;20021;-85
2022/05/24 08:10:48;;;;;;;2.47;1.30;;;;;;;;;;5033570;28;20033;-86
2022/05/24 08:13:19;;;;;;;2.03;1.02;;;;;;;;;;5036646;28;20030;-87
2022/05/24 08:15:45;;;;;;;1.55;1.17;;;;;;;;;;5035442;28;20036;-86
2022/05/24 08:21:16;;;;;;;2.75;1.38;;;;;;;;;;5034770;28;20033;-86
2022/05/24 08:23:48;;;;;;;2.35;1.20;;;;;;;;;;5042981;28;20406;-86
2022/05/24 08:26:14;;;;;;;1.95;1.20;;;;;;;;;;5032524;28;20033;-86
2022/05/24 08:28:41;;;;;;;1.52;1.20;;;;;;;;;;5031586;28;20080;-87
2022/05/24 08:31:08;;;;;;;3.17;1.40;;;;;;;;;;5034173;28;20021;-86
2022/05/24 08:33:40;;;;;;;1.90;0.90;;;;;;;;;;5034614;28;20490;-86
2022/05/24 08:36:12;;;;;;;2.50;1.08;;;;;;;;;;5041606;28;20040;-86
2022/05/24 08:38:40;;;;;;;1.77;0.68;;;;;;;;;;5053974;28;20091;-84
2022/05/24 08:41:07;;;;;;;1.35;0.70;;;;;;;;;;5053734;28;20032;-86
2022/05/24 08:43:43;;;;;;;3.15;1.00;;;;;;;;;;5041654;28;20095;-85
2022/05/24 08:49:13;;;;;;;2.97;0.68;;;;;;;;;;5033700;28;20095;-86
2022/05/24 08:51:42;;;;;;;;;;;;;;;;;;5032609;28;20035;-87
2022/05/24 08:54:11;;;;;;;2.42;0.73;;;;;;;;;;5033095;28;19939;-85
2022/05/24 08:56:46;;;;;;;2.90;0.90;;;;;;;;;;5032700;28;20057;-84
2022/05/24 08:59:18;;;;;;;5.18;0.93;;;;;;;;;;5032576;28;20041;-85
2022/05/24 09:01:52;;;;;;;2.40;0.90;;;;;;;;;;5040343;23;20045;-85
2022/05/24 09:04:21;;;;;;;2.35;1.13;;;;;;;;;;5014133;28;20037;-85
2022/05/24 09:07:06;;;;;;;3.85;0.85;;;;;;;;;;5012816;28;20023;-86
2022/05/24 09:09:53;;;;;;;1.42;0.82;;;;;;;;;;5012437;28;20018;-85
2022/05/24 09:12:38;;;;;;;0.73;0.70;;;;;;;;;;4992064;28;20554;-85
2022/05/24 09:15:07;;;;;;;3.15;0.82;;;;;;;;;;4993385;28;20034;-86
2022/05/24 09:17:35;;;;;;;1.80;0.65;;;;;;;;;;4992651;28;20030;-86
2022/05/24 09:20:06;;;;;;;3.33;0.80;;;;;;;;;;4992126;28;20042;-85
2022/05/24 09:22:35;;;;;;;2.22;0.60;;;;;;;;;;4992757;28;20026;-86
2022/05/24 09:25:01;;;;;;;5.80;0.50;;;;;;;;;;4992451;28;20034;-86
2022/05/24 09:27:28;;;;;;;1.42;0.47;;;;;;;;;;4992876;28;20388;-85
2022/05/24 09:30:30;;;;;;;1.13;0.93;;;;;;;;;;4994031;28;20041;-85
2022/05/24 09:33:14;;;;;;;3.85;0.50;;;;;;;;;;4914757;29;20024;-85
2022/05/24 09:35:42;;;;;;;0.40;0.40;;;;;;;;;;4999946;28;20039;-85
2022/05/24 09:38:42;;;;;;;2.10;0.40;;;;;;;;;;4989466;28;20512;-86
2022/05/24 09:41:22;;;;;;;2.05;0.40;;;;;;;;;;5008356;28;20562;-86
2022/05/24 09:44:00;;;;;;;1.60;0.45;;;;;;;;;;4993652;28;20681;-85
2022/05/24 09:46:28;;;;;;;0.82;0.50;;;;;;;;;;4992628;28;20033;-86
2022/05/24 09:49:15;;;;;;;0.98;0.47;;;;;;;;;;4992479;28;20023;-87
2022/05/24 09:51:42;;;;;;;1.40;0.68;;;;;;;;;;4982263;28;20034;-86
2022/05/24 09:54:16;;;;;;;1.88;0.50;;;;;;;;;;4993448;28;20022;-86
2022/05/24 09:56:58;;;;;;;1.98;0.90;;;;;;;;;;4992451;28;20061;-88
2022/05/24 09:59:26;;;;;;;;;;;;;;;;;;4992693;28;20030;-86
2022/05/24 10:01:53;;;;;;;1.58;0.77;;;;;;;;;;4992422;28;19940;-86
2022/05/24 10:04:26;;;;;;;2.17;0.93;;;;;;;;;;4992189;28;20033;-85
2022/05/24 10:07:02;;;;;;;1.27;0.75;;;;;;;;;;4992376;28;20125;-86
2022/05/24 10:09:49;;;;;;;2.13;0.77;;;;;;;;;;4992152;28;20026;-86
2022/05/24 10:12:30;;;;;;;1.15;0.70;;;;;;;;;;4993282;28;20077;-86
2022/05/24 10:14:56;;;;;;;1.85;0.60;;;;;;;;;;4993603;28;20081;-86
2022/05/24 10:17:42;;;;;;;3.22;0.45;;;;;;;;;;4992717;28;20034;-85
2022/05/24 10:20:08;;;;;;;1.85;0.68;;;;;;;;;;4992602;28;20395;-85
2022/05/24 10:22:51;;;;;;;3.33;1.10;;;;;;;;;;4992038;28;20037;-85
2022/05/24 10:25:17;;;;;;;0.90;0.43;;;;;;;;;;4992648;28;20054;-86
2022/05/24 10:27:53;;;;;;;0.63;0.38;;;;;;;;;;4993213;28;20026;-86
2022/05/24 10:30:29;;;;;;;2.42;0.68;;;;;;;;;;4991992;28;20050;-86
2022/05/24 10:39:20;;;;;;;0.45;0.30;;;;;;;;;;4933180;29;20039;-86
2022/05/24 10:42:04;;;;;;;1.13;0.30;;;;;;;;;;4971353;28;20057;-84
2022/05/24 10:44:30;;;;;;;4.70;0.60;;;;;;;;;;4972590;28;20066;-85
2022/05/24 10:47:21;;;;;;;3.58;0.45;;;;;;;;;;4987847;28;20431;-86
2022/05/24 10:50:01;;;;;;;0.63;0.30;;;;;;;;;;4992335;28;20049;-83
2022/05/24 10:52:55;;;;;;;4.22;0.40;;;;;;;;;;4994175;28;20049;-86
2022/05/24 10:55:21;;;;;;;1.75;1.05;;;;;;;;;;4995388;28;20058;-87
2022/05/24 11:00:58;;;;;;;5.32;0.40;;;;;;;;;;4992325;28;20108;-85
2022/05/24 11:03:29;;;;;;;3.72;0.40;;;;;;;;;;4995041;28;20042;-85
2022/05/24 11:05:58;;;;;;;1.70;0.50;;;;;;;;;;4995532;28;20398;-85
2022/05/24 11:11:51;;;;;;;3.88;0.60;;;;;;;;;;4992951;28;20059;-86
2022/05/24 11:14:30;;;;;;;1.60;0.40;;;;;;;;;;4996370;28;20018;-86
2022/05/24 11:16:57;;;;;;;1.33;0.40;;;;;;;;;;4998919;28;20022;-85
2022/05/24 11:19:31;;;;;;;1.48;0.43;;;;;;;;;;4994491;28;20025;-86
2022/05/24 11:22:07;;;;;;;0.50;0.40;;;;;;;;;;4985870;28;20071;-86
2022/05/24 11:24:51;;;;;;;1.83;0.50;;;;;;;;;;4994759;28;20038;-88
2022/05/24 11:27:23;;;;;;;2.40;0.50;;;;;;;;;;4993613;28;20030;-87
2022/05/24 11:29:50;;;;;;;0.43;0.38;;;;;;;;;;5013282;28;20042;-87
2022/05/24 11:32:31;;;;;;;0.30;0.30;;;;;;;;;;5013363;28;20026;-86
2022/05/24 11:34:59;;;;;;;1.23;0.40;;;;;;;;;;4995231;28;20542;-86
2022/05/24 11:37:30;;;;;;;7.95;0.30;;;;;;;;;;4995263;28;20030;-87
2022/05/24 11:39:56;;;;;;;2.00;0.60;;;;;;;;;;4994977;28;20485;-87
2022/05/24 11:42:22;;;;;;;0.88;0.28;;;;;;;;;;4991864;28;20030;-87
2022/05/24 11:44:48;;;;;;;3.33;0.68;;;;;;;;;;5005810;28;20049;-86
2022/05/24 11:47:33;;;;;;;2.90;0.55;;;;;;;;;;5029049;28;20029;-86
2022/05/24 11:50:00;;;;;;;4.68;0.32;;;;;;;;;;5005344;28;20022;-87
2022/05/24 11:52:41;;;;;;;2.78;0.98;;;;;;;;;;4995054;28;20030;-85
2022/05/24 11:55:11;;;;;;;1.13;0.45;;;;;;;;;;4995517;28;20105;-86
2022/05/24 11:58:00;;;;;;;3.80;0.40;;;;;;;;;;4993778;28;20030;-88
2022/05/24 12:00:50;;;;;;;;;;;;;;;;;;;;;
2022/05/24 12:09:14;;;;;;;2.30;0.38;;;;;;;;;;4975496;28;20050;-86
2022/05/24 12:11:40;;;;;;;1.23;0.40;;;;;;;;;;4979285;28;20045;-87
2022/05/24 12:14:55;;;;;;;2.10;0.60;;;;;;;;;;4994552;28;20034;-86
2022/05/24 12:27:17;;;;;;;2.85;0.40;;;;;;;;;;4992270;28;20030;-86
2022/05/24 12:29:45;;;;;;;0.50;0.43;;;;;;;;;;4992696;28;20117;-85
2022/05/24 12:32:18;;;;;;;3.03;0.93;;;;;;;;;;5024750;28;20037;-84
2022/05/24 12:34:45;;;;;;;3.92;0.57;;;;;;;;;;5034033;28;20029;-85
2022/05/24 12:37:31;;;;;;;0.40;0.40;;;;;;;;;;5016176;28;20557;-86
2022/05/24 12:40:16;;;;;;;1.08;0.50;;;;;;;;;;5016679;28;20033;-85
2022/05/24 12:43:00;;;;;;;1.48;0.63;;;;;;;;;;5023181;28;20041;-82
2022/05/24 12:48:39;;;;;;;0.77;0.43;;;;;;;;;;5030342;28;20029;-85
2022/05/24 12:51:07;;;;;;;1.13;0.43;;;;;;;;;;5017859;28;20075;-87
2022/05/24 12:53:42;;;;;;;3.45;0.45;;;;;;;;;;5035271;28;20021;-86
2022/05/24 12:56:14;;;;;;;1.85;0.40;;;;;;;;;;5035101;28;20037;-86
2022/05/24 12:58:57;;;;;;;0.75;0.40;;;;;;;;;;5010698;28;20114;-85
2022/05/24 13:01:34;;;;;;;1.65;0.40;;;;;;;;;;5012783;28;20578;-85
2022/05/24 13:04:27;;;;;;;2.13;0.40;;;;;;;;;;5054180;28;20376;-86
2022/05/24 13:07:19;;;;;;;1.08;0.47;;;;;;;;;;5032855;28;20024;-86
2022/05/24 13:10:01;;;;;;;3.08;0.35;;;;;;;;;;5032634;28;20541;-85
2022/05/24 13:12:30;;;;;;;1.67;0.43;;;;;;;;;;5024620;28;20137;-85
2022/05/24 13:14:57;;;;;;;0.75;0.57;;;;;;;;;;5031834;28;20433;-86
2022/05/24 13:17:25;;;;;;;1.08;0.43;;;;;;;;;;5034276;28;20020;-85
2022/05/24 13:20:00;;;;;;;1.75;0.65;;;;;;;;;;5011410;28;20037;-86
2022/05/24 13:22:47;;;;;;;0.82;0.35;;;;;;;;;;5014680;28;20542;-83
2022/05/24 13:25:22;;;;;;;1.70;0.60;;;;;;;;;;5047536;28;20034;-84
2022/05/24 13:28:02;;;;;;;1.45;0.30;;;;;;;;;;5033717;28;20017;-86
2022/05/24 13:33:33;;;;;;;3.65;0.40;;;;;;;;;;5032932;28;20039;-85
2022/05/24 13:36:21;;;;;;;2.30;0.57;;;;;;;;;;5032523;28;20037;-86
2022/05/24 13:38:50;;;;;;;1.85;0.55;;;;;;;;;;5013560;28;20053;-87
2022/05/24 13:41:29;;;;;;;1.38;0.30;;;;;;;;;;5014564;28;20114;-86
2022/05/24 13:44:14;;;;;;;2.45;0.30;;;;;;;;;;5031663;28;20522;-86
2022/05/24 13:46:53;;;;;;;2.17;0.28;;;;;;;;;;4999735;28;20145;-86
2022/05/24 13:49:40;;;;;;;0.88;0.28;;;;;;;;;;5031948;28;20025;-87
2022/05/24 13:52:20;;;;;;;2.25;0.50;;;;;;;;;;5014150;28;20026;-87
2022/05/24 13:54:47;;;;;;;1.77;0.38;;;;;;;;;;5047199;28;20045;-87
2022/05/24 13:57:27;;;;;;;0.80;0.40;;;;;;;;;;5032202;28;20036;-87
2022/05/24 14:00:14;;;;;;;0.47;0.20;;;;;;;;;;5031182;28;20444;-87
2022/05/24 14:02:42;;;;;;;3.92;0.50;;;;;;;;;;5031228;28;20034;-85
2022/05/24 14:05:23;;;;;;;1.90;0.40;;;;;;;;;;5049759;28;20044;-86
2022/05/24 14:07:52;;;;;;;1.60;0.60;;;;;;;;;;5031715;28;20053;-84
2022/05/24 14:10:38;;;;;;;0.55;0.30;;;;;;;;;;5014220;28;20022;-83
2022/05/24 14:13:10;;;;;;;6.32;0.55;;;;;;;;;;5020395;28;20029;-85
2022/05/24 14:15:40;;;;;;;6.13;0.47;;;;;;;;;;5023267;28;20025;-83
2022/05/24 14:18:16;;;;;;;2.20;0.40;;;;;;;;;;5032668;28;20065;-83
2022/05/24 14:20:52;;;;;;;2.42;0.40;;;;;;;;;;5032273;28;20033;-84
2022/05/24 14:23:22;;;;;;;1.20;0.20;;;;;;;;;;5032917;28;20030;-84
2022/05/24 14:25:51;;;;;;;0.80;0.30;;;;;;;;;;5014912;28;20065;-84
2022/05/24 14:28:25;;;;;;;2.95;0.30;;;;;;;;;;5016880;28;20033;-85
2022/05/24 14:30:51;;;;;;;0.77;0.30;;;;;;;;;;5036284;28;20493;-85
2022/05/24 14:33:21;;;;;;;1.13;0.40;;;;;;;;;;5028432;28;20056;-85
2022/05/24 14:35:50;;;;;;;0.73;0.40;;;;;;;;;;5035648;28;20033;-85
2022/05/24 14:38:26;;;;;;;;;;;;;;;;;;;;;
2022/05/24 14:41:16;;;;;;;4.40;0.60;;;;;;;;;;5038964;23;20048;-85
2022/05/24 14:43:45;;;;;;;0.73;0.40;;;;;;;;;;5033906;28;20124;-86
2022/05/24 14:46:14;;;;;;;0.68;0.30;;;;;;;;;;5039446;28;20044;-85
2022/05/24 14:48:51;;;;;;;0.55;0.30;;;;;;;;;;5016226;28;20132;-86
2022/05/24 14:51:35;;;;;;;1.10;0.40;;;;;;;;;;5018024;28;20077;-87
2022/05/24 14:54:38;;;;;;;0.50;0.30;;;;;;;;;;5018072;28;20048;-86
2022/05/24 14:57:16;;;;;;;1.08;0.40;;;;;;;;;;5016831;28;20037;-88
2022/05/24 15:02:51;;;;;;;0.52;0.30;;;;;;;;;;5033515;28;20491;-86
2022/05/24 15:05:39;;;;;;;0.55;0.40;;;;;;;;;;5017151;28;20566;-86
2022/05/24 15:20:28;;;;;;;3.38;0.50;;;;;;;;;;5042077;28;20461;-86
2022/05/24 15:22:54;;;;;;;0.65;0.35;;;;;;;;;;5017408;28;20025;-85
2022/05/24 15:25:22;;;;;;;1.27;0.30;;;;;;;;;;5017268;28;20032;-86
2022/05/24 15:28:01;;;;;;;3.33;0.40;;;;;;;;;;5016879;28;20044;-87
2022/05/24 15:30:30;;;;;;;0.65;0.30;;;;;;;;;;5016675;28;20022;-87
2022/05/24 15:32:58;;;;;;;0.93;0.30;;;;;;;;;;5016621;28;20037;-86
2022/05/24 15:35:27;;;;;;;0.93;0.40;;;;;;;;;;5014058;28;20109;-88
2022/05/24 15:37:53;;;;;;;1.20;0.32;;;;;;;;;;5013880;28;20034;-87
2022/05/24 15:40:22;;;;;;;0.75;0.40;;;;;;;;;;5014004;28;20036;-88
2022/05/24 15:46:05;;;;;;;2.42;0.57;;;;;;;;;;5015378;28;20403;-87
2022/05/24 15:48:34;;;;;;;1.30;0.68;;;;;;;;;;5014518;28;20106;-87
2022/05/24 15:51:06;;;;;;;1.90;0.38;;;;;;;;;;5014110;28;20029;-87
2022/05/24 15:53:38;;;;;;;1.30;0.45;;;;;;;;;;5015534;28;20022;-87
2022/05/24 15:56:11;;;;;;;1.98;0.40;;;;;;;;;;5026583;28;20028;-88
2022/05/24 15:58:42;;;;;;;1.02;0.40;;;;;;;;;;5036945;28;20095;-87
2022/05/24 16:01:09;;;;;;;;;;;;;;;;;;5046212;28;20037;-86
2022/05/24 16:03:38;;;;;;;1.10;0.30;;;;;;;;;;5040700;28;19996;-87
2022/05/24 16:12:02;;;;;;;2.35;0.40;;;;;;;;;;5032600;28;20035;-86
2022/05/24 16:14:49;;;;;;;1.23;0.60;;;;;;;;;;5036107;28;20071;-87
2022/05/24 16:17:16;;;;;;;4.43;0.40;;;;;;;;;;5039239;28;20493;-86
2022/05/24 16:19:43;;;;;;;0.75;0.40;;;;;;;;;;5016109;28;20049;-85
2022/05/24 16:22:09;;;;;;;2.20;0.40;;;;;;;;;;5014817;28;20033;-85
2022/05/24 16:24:36;;;;;;;5.28;0.68;;;;;;;;;;5033968;28;20478;-85
2022/05/24 16:27:02;;;;;;;2.30;0.40;;;;;;;;;;5033330;28;20035;-86
2022/05/24 16:29:28;;;;;;;2.17;0.40;;;;;;;;;;5033826;28;20549;-86
2022/05/24 16:31:58;;;;;;;3.03;0.38;;;;;;;;;;5016021;28;20064;-86
2022/05/24 16:34:24;;;;;;;0.93;0.52;;;;;;;;;;5016460;28;20067;-85
2022/05/24 16:36:50;;;;;;;1.65;0.30;;;;;;;;;;5034332;28;20025;-85
2022/05/24 16:39:17;;;;;;;3.00;0.40;;;;;;;;;;5016815;28;20021;-85
2022/05/24 16:41:43;;;;;;;1.70;0.45;;;;;;;;;;5016611;28;20021;-86